Time;durP1;ratioP1;P1;durP2;ratioP2;P2;SDS_P1;SDS_P2;PMS_P1;PMS_P2;Temp;Humidity;BMP_temperature;BMP_pressure;BME280_temperature;BME280_humidity;BME280_pressure;Samples;Min_cycle;Max_cycle;Signal;HPM_P1;HPM_P2
2021/09/16 09:44:13;;;;;;;5.47;2.20;;;21.60;99.90;;;;;;15011859;22;1415232;-65
2021/09/16 09:50:00;;;;;;;6.90;2.30;;;21.90;99.90;;;;;;14767356;22;20032;-65
2021/09/16 09:55:49;;;;;;;4.60;1.80;;;21.90;99.90;;;;;;14750588;22;20073;-64
2021/09/16 10:01:38;;;;;;;6.50;2.70;;;22.00;99.90;;;;;;14788610;22;20021;-65
2021/09/16 10:07:37;;;;;;;6.25;3.00;;;22.10;99.90;;;;;;14736953;23;20024;-65
2021/09/16 10:13:24;;;;;;;6.35;2.80;;;21.70;99.90;;;;;;14803065;22;20024;-65
2021/09/16 10:19:13;;;;;;;5.13;2.70;;;21.90;99.90;;;;;;14801433;22;20028;-64
2021/09/16 10:25:00;;;;;;;3.30;2.45;;;21.90;99.90;;;;;;14802993;22;20032;-64
2021/09/16 10:30:48;;;;;;;8.32;2.90;;;22.10;99.90;;;;;;14803932;22;20359;-64
2021/09/16 10:36:36;;;;;;;9.50;3.88;;;22.20;99.90;;;;;;14793551;22;20466;-65
2021/09/16 10:42:50;;;;;;;4.50;3.45;;;22.10;99.90;;;;;;14786152;22;20025;-64
2021/09/16 10:48:37;;;;;;;4.32;3.25;;;22.10;99.90;;;;;;14756073;22;20035;-64
2021/09/16 10:54:48;;;;;;;6.82;3.35;;;22.30;99.90;;;;;;14758228;22;20050;-64
2021/09/16 11:00:40;;;;;;;14.15;3.88;;;22.50;99.90;;;;;;14726101;22;20497;-64
2021/09/16 11:06:57;;;;;;;6.00;3.35;;;22.70;99.40;;;;;;14776942;22;20025;-64
2021/09/16 11:12:47;;;;;;;16.50;3.30;;;22.60;98.90;;;;;;14785750;22;20024;-65
2021/09/16 11:18:34;;;;;;;7.35;3.70;;;22.80;98.80;;;;;;14786715;22;20024;-67
2021/09/16 11:24:29;;;;;;;8.82;3.40;;;22.90;96.50;;;;;;14794262;22;20035;-71
2021/09/16 11:30:21;;;;;;;7.22;3.15;;;23.00;97.00;;;;;;14785806;22;20024;-66
2021/09/16 11:36:09;;;;;;;5.35;3.67;;;23.10;97.20;;;;;;14794423;22;20032;-68
2021/09/16 11:42:12;;;;;;;6.03;3.75;;;23.20;97.10;;;;;;14782128;22;20024;-67
2021/09/16 11:48:06;;;;;;;4.95;3.38;;;23.40;96.20;;;;;;14753206;22;20025;-67
2021/09/16 11:53:53;;;;;;;9.95;4.15;;;23.80;95.30;;;;;;14747051;22;20020;-68
2021/09/16 11:59:40;;;;;;;5.30;3.15;;;24.00;93.90;;;;;;14746614;22;20473;-68
2021/09/16 12:12:11;;;;;;;6.38;3.50;;;24.00;92.20;;;;;;14796364;22;20386;-67
2021/09/16 12:18:07;;;;;;;4.38;3.17;;;24.00;91.60;;;;;;14784711;22;20028;-67
2021/09/16 12:23:56;;;;;;;7.63;3.33;;;23.90;92.00;;;;;;14784490;22;20025;-67
2021/09/16 12:29:45;;;;;;;8.52;4.50;;;24.20;92.40;;;;;;14784637;22;20028;-67
2021/09/16 12:35:39;;;;;;;5.85;3.17;;;24.60;90.40;;;;;;14784303;22;20499;-67
2021/09/16 12:41:32;;;;;;;8.27;3.10;;;24.70;88.60;;;;;;14740573;22;20039;-67
2021/09/16 12:47:22;;;;;;;7.00;3.28;;;24.40;90.80;;;;;;14762945;22;20055;-67
2021/09/16 12:53:15;;;;;;;7.03;2.95;;;24.30;91.80;;;;;;14735866;22;20131;-67
2021/09/16 12:59:17;;;;;;;7.40;3.17;;;24.20;91.50;;;;;;14751503;22;20033;-67
2021/09/16 13:05:09;;;;;;;7.30;4.00;;;24.60;90.30;;;;;;14753568;22;20027;-67
2021/09/16 13:10:57;;;;;;;5.77;3.27;;;24.70;86.30;;;;;;14751488;22;20056;-67
2021/09/16 13:16:44;;;;;;;9.30;3.55;;;24.40;89.70;;;;;;14752660;22;20118;-68
2021/09/16 13:22:33;;;;;;;7.80;3.22;;;24.20;88.70;;;;;;14753048;22;20020;-67
2021/09/16 13:28:24;;;;;;;7.35;3.47;;;24.40;90.00;;;;;;14699868;22;20043;-67
2021/09/16 13:34:11;;;;;;;6.00;3.85;;;25.00;86.00;;;;;;14730983;22;20028;-67
2021/09/16 13:40:09;;;;;;;5.97;3.30;;;25.50;81.90;;;;;;14768553;22;20033;-67
2021/09/16 13:45:56;;;;;;;5.15;3.85;;;25.70;81.90;;;;;;14709733;22;20035;-67
2021/09/16 13:51:45;;;;;;;5.97;3.38;;;25.00;81.20;;;;;;14749227;22;20031;-67
2021/09/16 13:57:33;;;;;;;7.32;3.58;;;24.50;83.70;;;;;;14743486;22;20047;-67
2021/09/16 14:03:20;;;;;;;7.25;4.00;;;24.60;85.00;;;;;;14751112;22;20032;-67
2021/09/16 14:09:08;;;;;;;4.68;3.65;;;24.90;84.40;;;;;;14739001;22;20487;-67
2021/09/16 14:15:07;;;;;;;6.28;3.58;;;25.10;84.70;;;;;;14710969;22;20020;-67
2021/09/16 14:20:55;;;;;;;5.25;3.17;;;25.50;83.40;;;;;;14755019;22;20382;-67
2021/09/16 14:26:42;;;;;;;11.02;6.88;;;25.80;82.20;;;;;;14755408;22;20024;-67
2021/09/16 14:32:39;;;;;;;12.05;7.45;;;25.50;83.00;;;;;;14771066;22;20521;-67
2021/09/16 14:38:27;;;;;;;7.20;4.43;;;25.20;85.00;;;;;;14769560;22;20024;-67
2021/09/16 14:44:14;;;;;;;15.43;9.15;;;25.00;84.60;;;;;;14754262;22;20530;-67
2021/09/16 14:56:21;;;;;;;8.68;3.83;;;25.00;83.30;;;;;;14653697;22;20040;-67
2021/09/16 15:02:09;;;;;;;6.60;3.88;;;25.40;81.10;;;;;;14704138;22;20013;-67
2021/09/16 15:20:12;;;;;;;8.73;2.90;;;25.70;76.50;;;;;;14681429;22;20017;-67
2021/09/16 15:26:03;;;;;;;3.60;2.58;;;25.20;79.50;;;;;;14693089;22;20028;-67
2021/09/16 15:31:53;;;;;;;5.60;2.63;;;24.90;81.60;;;;;;14725998;22;20030;-67
2021/09/16 15:37:40;;;;;;;4.13;2.45;;;24.70;82.40;;;;;;14753066;22;20031;-67
2021/09/16 15:50:14;;;;;;;7.68;2.38;;;24.50;84.60;;;;;;14761131;22;20378;-68
2021/09/16 15:56:02;;;;;;;2.92;2.40;;;24.40;83.00;;;;;;14761199;22;20024;-68
2021/09/16 16:01:52;;;;;;;3.15;2.40;;;24.40;85.00;;;;;;14758775;22;20020;-68
2021/09/16 16:07:41;;;;;;;5.45;2.67;;;24.40;84.70;;;;;;14751621;22;20020;-69
2021/09/16 16:19:30;;;;;;;8.18;2.65;;;24.20;84.30;;;;;;14757631;22;20328;-69
2021/09/16 16:25:18;;;;;;;6.00;2.80;;;24.40;84.60;;;;;;14783988;22;20051;-69
2021/09/16 16:31:05;;;;;;;7.63;2.40;;;24.20;84.90;;;;;;14776042;22;20509;-69
2021/09/16 16:37:00;;;;;;;3.70;2.80;;;24.00;85.50;;;;;;14784634;22;20028;-69
2021/09/16 16:43:03;;;;;;;5.18;2.38;;;23.70;86.10;;;;;;14771742;22;20040;-69
2021/09/16 16:48:52;;;;;;;6.05;2.28;;;23.60;87.30;;;;;;14754407;22;20039;-69
2021/09/16 16:54:39;;;;;;;4.47;3.25;;;23.60;87.70;;;;;;14751045;22;20155;-69
2021/09/16 17:00:45;;;;;;;4.15;2.70;;;23.70;88.80;;;;;;14750886;22;20024;-69
2021/09/16 17:06:33;;;;;;;6.63;2.75;;;23.60;89.30;;;;;;14750816;22;20157;-70
2021/09/16 17:12:23;;;;;;;4.78;2.67;;;23.60;89.80;;;;;;14751409;22;20031;-65
2021/09/16 17:24:15;;;;;;;7.93;3.03;;;23.40;90.30;;;;;;14719426;22;20502;-65
2021/09/16 17:30:03;;;;;;;4.78;2.92;;;23.40;91.20;;;;;;14770456;22;20028;-67
2021/09/16 17:35:52;;;;;;;5.80;3.13;;;23.40;92.80;;;;;;14737348;22;20024;-66
2021/09/16 17:41:39;;;;;;;5.15;3.42;;;23.30;94.00;;;;;;14751350;22;20025;-66
2021/09/16 17:47:27;;;;;;;4.85;2.88;;;23.20;95.00;;;;;;14761428;22;20490;-65
2021/09/16 17:53:38;;;;;;;5.57;3.20;;;23.10;95.60;;;;;;14749469;22;20035;-65
2021/09/16 17:59:27;;;;;;;4.93;3.15;;;23.00;96.10;;;;;;14720709;22;20020;-65
2021/09/16 18:05:16;;;;;;;3.40;2.80;;;23.00;96.00;;;;;;14740202;22;20033;-65
2021/09/16 18:11:08;;;;;;;4.88;2.75;;;22.90;96.40;;;;;;14753411;22;20031;-66
2021/09/16 18:16:59;;;;;;;4.70;3.00;;;22.80;96.60;;;;;;14703051;22;20028;-64
2021/09/16 18:22:49;;;;;;;6.05;4.15;;;22.60;96.60;;;;;;14673482;22;20024;-65
2021/09/16 18:34:39;;;;;;;4.63;2.97;;;22.50;97.50;;;;;;14696403;22;20033;-65
2021/09/16 18:40:29;;;;;;;4.90;3.30;;;22.30;97.60;;;;;;14670859;22;20026;-65
2021/09/16 18:46:29;;;;;;;7.50;3.90;;;22.10;98.30;;;;;;14651600;22;20051;-64
2021/09/16 18:52:16;;;;;;;5.90;3.47;;;21.90;98.80;;;;;;14631395;22;20032;-65
2021/09/16 19:10:25;;;;;;;9.38;3.72;;;21.40;99.50;;;;;;14764495;22;20027;-64
2021/09/16 19:16:14;;;;;;;5.40;3.75;;;21.40;99.50;;;;;;14704543;22;20032;-65
